sensor_id;sensor_type;location;lat;lon;timestamp;pressure;altitude;pressure_sealevel;temperature;humidity
26807;BME280;14380;49.910;6.792;2023-06-14T00:00:07;98466.38;;;14.55;83.86
26807;BME280;14380;49.910;6.792;2023-06-14T00:02:34;98469.59;;;14.36;85.55
26807;BME280;14380;49.910;6.792;2023-06-14T00:05:01;98472.28;;;14.59;84.35
26807;BME280;14380;49.910;6.792;2023-06-14T00:07:35;98472.69;;;14.30;86.40
26807;BME280;14380;49.910;6.792;2023-06-14T00:10:02;98470.50;;;14.24;87.51
26807;BME280;14380;49.910;6.792;2023-06-14T00:12:31;98464.25;;;14.01;87.64
26807;BME280;14380;49.910;6.792;2023-06-14T00:14:57;98471.91;;;14.17;86.07
26807;BME280;14380;49.910;6.792;2023-06-14T00:17:26;98467.84;;;14.24;86.68
26807;BME280;14380;49.910;6.792;2023-06-14T00:19:55;98468.31;;;14.18;86.71
26807;BME280;14380;49.910;6.792;2023-06-14T00:22:22;98465.03;;;14.50;84.25
26807;BME280;14380;49.910;6.792;2023-06-14T00:24:50;98478.97;;;14.29;86.40
26807;BME280;14380;49.910;6.792;2023-06-14T00:27:17;98478.41;;;14.01;87.72
26807;BME280;14380;49.910;6.792;2023-06-14T00:29:45;98486.59;;;13.98;88.58
26807;BME280;14380;49.910;6.792;2023-06-14T00:32:12;98486.91;;;13.93;88.17
26807;BME280;14380;49.910;6.792;2023-06-14T00:34:39;98491.59;;;13.90;88.24
26807;BME280;14380;49.910;6.792;2023-06-14T00:37:05;98492.28;;;13.80;88.01
26807;BME280;14380;49.910;6.792;2023-06-14T00:39:32;98491.88;;;14.22;85.13
26807;BME280;14380;49.910;6.792;2023-06-14T00:42:00;98490.69;;;14.26;84.06
26807;BME280;14380;49.910;6.792;2023-06-14T00:44:27;98498.09;;;14.10;85.37
26807;BME280;14380;49.910;6.792;2023-06-14T00:46:55;98494.25;;;14.14;86.04
26807;BME280;14380;49.910;6.792;2023-06-14T00:49:22;98499.69;;;14.12;86.48
26807;BME280;14380;49.910;6.792;2023-06-14T00:51:49;98487.69;;;14.07;87.32
26807;BME280;14380;49.910;6.792;2023-06-14T00:54:16;98494.19;;;14.03;86.26
26807;BME280;14380;49.910;6.792;2023-06-14T00:56:44;98491.31;;;14.06;86.40
26807;BME280;14380;49.910;6.792;2023-06-14T00:59:11;98493.69;;;13.97;86.70
26807;BME280;14380;49.910;6.792;2023-06-14T01:01:38;98495.56;;;13.84;87.69
26807;BME280;14380;49.910;6.792;2023-06-14T01:04:06;98483.50;;;13.91;87.79
26807;BME280;14380;49.910;6.792;2023-06-14T01:06:36;98485.84;;;13.96;86.73
26807;BME280;14380;49.910;6.792;2023-06-14T01:09:15;98491.44;;;13.80;87.74
26807;BME280;14380;49.910;6.792;2023-06-14T01:11:53;98501.25;;;13.66;90.31
26807;BME280;14380;49.910;6.792;2023-06-14T01:14:23;98502.19;;;13.65;90.37
26807;BME280;14380;49.910;6.792;2023-06-14T01:16:52;98500.53;;;13.51;91.09
26807;BME280;14380;49.910;6.792;2023-06-14T01:19:20;98510.09;;;13.28;93.48
26807;BME280;14380;49.910;6.792;2023-06-14T01:21:50;98506.28;;;13.06;94.73
26807;BME280;14380;49.910;6.792;2023-06-14T01:24:21;98508.50;;;13.38;92.75
26807;BME280;14380;49.910;6.792;2023-06-14T01:26:51;98505.13;;;13.23;93.33
26807;BME280;14380;49.910;6.792;2023-06-14T01:29:22;98506.84;;;12.99;93.88
26807;BME280;14380;49.910;6.792;2023-06-14T01:31:49;98506.31;;;12.81;95.49
26807;BME280;14380;49.910;6.792;2023-06-14T01:34:16;98512.34;;;12.83;95.42
26807;BME280;14380;49.910;6.792;2023-06-14T01:36:44;98510.25;;;12.75;96.74
26807;BME280;14380;49.910;6.792;2023-06-14T01:39:14;98505.97;;;12.72;96.74
26807;BME280;14380;49.910;6.792;2023-06-14T01:41:43;98512.78;;;12.76;96.68
26807;BME280;14380;49.910;6.792;2023-06-14T01:44:12;98512.03;;;12.87;96.15
26807;BME280;14380;49.910;6.792;2023-06-14T01:46:42;98513.19;;;12.57;96.79
26807;BME280;14380;49.910;6.792;2023-06-14T01:49:09;98519.53;;;12.55;97.55
26807;BME280;14380;49.910;6.792;2023-06-14T01:51:35;98514.69;;;12.74;95.63
26807;BME280;14380;49.910;6.792;2023-06-14T01:54:02;98508.97;;;12.68;95.97
26807;BME280;14380;49.910;6.792;2023-06-14T01:56:29;98521.75;;;12.61;95.97
26807;BME280;14380;49.910;6.792;2023-06-14T01:58:57;98511.94;;;12.89;93.88
26807;BME280;14380;49.910;6.792;2023-06-14T02:01:24;98517.66;;;12.96;93.54
26807;BME280;14380;49.910;6.792;2023-06-14T02:03:51;98520.63;;;12.91;92.61
26807;BME280;14380;49.910;6.792;2023-06-14T02:06:18;98514.47;;;12.77;94.84
26807;BME280;14380;49.910;6.792;2023-06-14T02:08:45;98516.69;;;12.58;95.87
26807;BME280;14380;49.910;6.792;2023-06-14T02:11:12;98520.38;;;12.68;96.14
26807;BME280;14380;49.910;6.792;2023-06-14T02:13:38;98517.13;;;12.77;93.98
26807;BME280;14380;49.910;6.792;2023-06-14T02:16:06;98516.97;;;12.53;96.14
26807;BME280;14380;49.910;6.792;2023-06-14T02:18:32;98519.63;;;12.66;95.47
26807;BME280;14380;49.910;6.792;2023-06-14T02:21:00;98517.25;;;12.76;93.64
26807;BME280;14380;49.910;6.792;2023-06-14T02:23:26;98519.84;;;12.63;95.18
26807;BME280;14380;49.910;6.792;2023-06-14T02:25:53;98517.38;;;12.47;96.85
26807;BME280;14380;49.910;6.792;2023-06-14T02:28:19;98522.41;;;12.52;95.74
26807;BME280;14380;49.910;6.792;2023-06-14T02:30:46;98526.63;;;12.67;94.71
26807;BME280;14380;49.910;6.792;2023-06-14T02:33:14;98526.41;;;12.44;97.22
26807;BME280;14380;49.910;6.792;2023-06-14T02:35:40;98525.88;;;12.52;96.20
26807;BME280;14380;49.910;6.792;2023-06-14T02:38:07;98532.44;;;12.46;96.44
26807;BME280;14380;49.910;6.792;2023-06-14T02:40:33;98530.63;;;12.47;96.90
26807;BME280;14380;49.910;6.792;2023-06-14T02:43:00;98533.72;;;12.13;98.74
26807;BME280;14380;49.910;6.792;2023-06-14T02:45:27;98525.25;;;12.48;95.45
26807;BME280;14380;49.910;6.792;2023-06-14T02:47:54;98530.09;;;12.42;96.50
26807;BME280;14380;49.910;6.792;2023-06-14T02:50:22;98524.09;;;12.66;93.85
26807;BME280;14380;49.910;6.792;2023-06-14T02:52:49;98522.00;;;12.58;94.89
26807;BME280;14380;49.910;6.792;2023-06-14T02:55:15;98532.06;;;12.66;96.02
26807;BME280;14380;49.910;6.792;2023-06-14T02:57:42;98530.75;;;12.45;97.31
26807;BME280;14380;49.910;6.792;2023-06-14T03:00:09;98527.97;;;12.07;100.00
26807;BME280;14380;49.910;6.792;2023-06-14T03:02:38;98524.53;;;12.19;98.44
26807;BME280;14380;49.910;6.792;2023-06-14T03:05:05;98529.97;;;11.88;100.00
26807;BME280;14380;49.910;6.792;2023-06-14T03:07:35;98526.44;;;12.17;97.76
26807;BME280;14380;49.910;6.792;2023-06-14T03:10:07;98526.66;;;11.99;99.21
26807;BME280;14380;49.910;6.792;2023-06-14T03:12:34;98531.72;;;12.17;98.24
26807;BME280;14380;49.910;6.792;2023-06-14T03:15:01;98526.81;;;12.11;98.83
26807;BME280;14380;49.910;6.792;2023-06-14T03:17:30;98533.97;;;12.23;97.85
26807;BME280;14380;49.910;6.792;2023-06-14T03:19:59;98534.31;;;12.04;99.65
26807;BME280;14380;49.910;6.792;2023-06-14T03:22:25;98530.19;;;12.27;98.16
26807;BME280;14380;49.910;6.792;2023-06-14T03:24:53;98533.38;;;11.90;100.00
26807;BME280;14380;49.910;6.792;2023-06-14T03:27:20;98532.22;;;12.09;99.78
26807;BME280;14380;49.910;6.792;2023-06-14T03:29:47;98538.03;;;12.14;98.45
26807;BME280;14380;49.910;6.792;2023-06-14T03:32:13;98533.69;;;11.86;100.00
26807;BME280;14380;49.910;6.792;2023-06-14T03:34:40;98536.38;;;11.57;100.00
26807;BME280;14380;49.910;6.792;2023-06-14T03:37:07;98535.72;;;12.10;97.91
26807;BME280;14380;49.910;6.792;2023-06-14T03:39:34;98533.22;;;12.21;96.74
26807;BME280;14380;49.910;6.792;2023-06-14T03:42:03;98537.31;;;12.12;98.25
26807;BME280;14380;49.910;6.792;2023-06-14T03:44:30;98546.06;;;12.27;97.37
26807;BME280;14380;49.910;6.792;2023-06-14T03:46:57;98540.66;;;12.29;97.46
26807;BME280;14380;49.910;6.792;2023-06-14T03:49:23;98544.63;;;12.22;99.69
26807;BME280;14380;49.910;6.792;2023-06-14T03:51:50;98550.72;;;12.37;99.49
26807;BME280;14380;49.910;6.792;2023-06-14T03:54:17;98547.41;;;12.20;100.00
26807;BME280;14380;49.910;6.792;2023-06-14T03:56:44;98556.28;;;12.19;99.40
26807;BME280;14380;49.910;6.792;2023-06-14T03:59:12;98552.72;;;12.33;99.03
26807;BME280;14380;49.910;6.792;2023-06-14T04:01:39;98555.75;;;12.54;97.58
26807;BME280;14380;49.910;6.792;2023-06-14T04:04:11;98556.25;;;12.87;94.39
26807;BME280;14380;49.910;6.792;2023-06-14T04:06:37;98550.84;;;13.14;93.33
26807;BME280;14380;49.910;6.792;2023-06-14T04:09:07;98554.44;;;13.26;92.39
26807;BME280;14380;49.910;6.792;2023-06-14T04:11:33;98555.06;;;13.56;89.80
26807;BME280;14380;49.910;6.792;2023-06-14T04:14:01;98547.81;;;13.71;92.64
26807;BME280;14380;49.910;6.792;2023-06-14T04:16:30;98560.72;;;13.88;92.35
26807;BME280;14380;49.910;6.792;2023-06-14T04:18:57;98565.03;;;14.02;90.38
26807;BME280;14380;49.910;6.792;2023-06-14T04:21:24;98564.97;;;14.39;88.96
26807;BME280;14380;49.910;6.792;2023-06-14T04:23:51;98570.59;;;14.59;88.17
26807;BME280;14380;49.910;6.792;2023-06-14T04:26:20;98564.31;;;14.84;89.85
26807;BME280;14380;49.910;6.792;2023-06-14T04:28:49;98567.84;;;14.96;87.46
26807;BME280;14380;49.910;6.792;2023-06-14T04:31:16;98568.00;;;15.29;88.33
26807;BME280;14380;49.910;6.792;2023-06-14T04:33:44;98573.22;;;15.42;85.08
26807;BME280;14380;49.910;6.792;2023-06-14T04:36:12;98568.97;;;15.73;85.08
26807;BME280;14380;49.910;6.792;2023-06-14T04:38:38;98571.72;;;16.17;82.50
26807;BME280;14380;49.910;6.792;2023-06-14T04:41:06;98576.09;;;16.51;81.13
26807;BME280;14380;49.910;6.792;2023-06-14T04:43:36;98576.78;;;16.32;85.66
26807;BME280;14380;49.910;6.792;2023-06-14T04:46:04;98579.88;;;16.37;85.17
26807;BME280;14380;49.910;6.792;2023-06-14T04:48:34;98579.16;;;16.68;85.37
26807;BME280;14380;49.910;6.792;2023-06-14T04:51:03;98580.16;;;17.09;81.65
26807;BME280;14380;49.910;6.792;2023-06-14T04:53:31;98578.72;;;17.05;81.43
26807;BME280;14380;49.910;6.792;2023-06-14T04:55:58;98580.56;;;17.04;82.62
26807;BME280;14380;49.910;6.792;2023-06-14T04:58:26;98579.41;;;17.49;80.44
26807;BME280;14380;49.910;6.792;2023-06-14T05:00:52;98585.28;;;17.43;85.83
26807;BME280;14380;49.910;6.792;2023-06-14T05:03:21;98589.53;;;17.87;78.05
26807;BME280;14380;49.910;6.792;2023-06-14T05:05:49;98591.13;;;17.58;80.08
26807;BME280;14380;49.910;6.792;2023-06-14T05:08:17;98584.97;;;17.36;79.90
26807;BME280;14380;49.910;6.792;2023-06-14T05:10:44;98584.13;;;17.36;81.53
26807;BME280;14380;49.910;6.792;2023-06-14T05:13:10;98586.44;;;17.91;79.87
26807;BME280;14380;49.910;6.792;2023-06-14T05:15:37;98594.28;;;18.24;78.41
26807;BME280;14380;49.910;6.792;2023-06-14T05:18:04;98596.41;;;17.79;83.07
26807;BME280;14380;49.910;6.792;2023-06-14T05:20:30;98588.47;;;17.99;81.09
26807;BME280;14380;49.910;6.792;2023-06-14T05:22:57;98592.19;;;18.86;77.77
26807;BME280;14380;49.910;6.792;2023-06-14T05:25:25;98593.47;;;18.43;78.57
26807;BME280;14380;49.910;6.792;2023-06-14T05:27:53;98600.09;;;17.98;79.78
26807;BME280;14380;49.910;6.792;2023-06-14T05:30:20;98600.66;;;18.72;81.30
26807;BME280;14380;49.910;6.792;2023-06-14T05:32:47;98601.09;;;18.67;78.15
26807;BME280;14380;49.910;6.792;2023-06-14T05:35:13;98598.69;;;18.74;77.65
26807;BME280;14380;49.910;6.792;2023-06-14T05:37:40;98605.72;;;19.05;76.86
26807;BME280;14380;49.910;6.792;2023-06-14T05:40:08;98601.56;;;19.77;75.63
26807;BME280;14380;49.910;6.792;2023-06-14T05:42:36;98606.47;;;19.54;76.72
26807;BME280;14380;49.910;6.792;2023-06-14T05:45:04;98604.69;;;19.35;78.51
26807;BME280;14380;49.910;6.792;2023-06-14T05:47:31;98601.22;;;20.18;74.97
26807;BME280;14380;49.910;6.792;2023-06-14T05:49:58;98611.53;;;20.41;76.24
26807;BME280;14380;49.910;6.792;2023-06-14T05:52:24;98610.00;;;20.57;77.12
26807;BME280;14380;49.910;6.792;2023-06-14T05:54:51;98603.59;;;20.68;73.93
26807;BME280;14380;49.910;6.792;2023-06-14T05:57:18;98617.81;;;20.50;77.70
26807;BME280;14380;49.910;6.792;2023-06-14T05:59:46;98612.28;;;20.79;74.98
26807;BME280;14380;49.910;6.792;2023-06-14T06:02:13;98611.56;;;20.95;74.80
26807;BME280;14380;49.910;6.792;2023-06-14T06:04:40;98609.38;;;21.17;75.08
26807;BME280;14380;49.910;6.792;2023-06-14T06:07:06;98609.97;;;21.29;73.87
26807;BME280;14380;49.910;6.792;2023-06-14T06:09:33;98617.28;;;21.19;70.21
26807;BME280;14380;49.910;6.792;2023-06-14T06:12:00;98605.91;;;21.86;65.29
26807;BME280;14380;49.910;6.792;2023-06-14T06:14:27;98615.75;;;22.04;62.98
26807;BME280;14380;49.910;6.792;2023-06-14T06:16:55;98615.81;;;21.77;67.30
26807;BME280;14380;49.910;6.792;2023-06-14T06:19:22;98623.13;;;22.45;65.39
26807;BME280;14380;49.910;6.792;2023-06-14T06:21:49;98616.75;;;22.03;61.90
26807;BME280;14380;49.910;6.792;2023-06-14T06:24:16;98624.25;;;22.25;70.91
26807;BME280;14380;49.910;6.792;2023-06-14T06:26:43;98613.47;;;22.34;68.10
26807;BME280;14380;49.910;6.792;2023-06-14T06:29:09;98619.94;;;22.49;66.38
26807;BME280;14380;49.910;6.792;2023-06-14T06:31:36;98622.31;;;22.09;64.74
26807;BME280;14380;49.910;6.792;2023-06-14T06:34:04;98619.09;;;22.57;63.42
26807;BME280;14380;49.910;6.792;2023-06-14T06:36:32;98618.13;;;22.50;61.29
26807;BME280;14380;49.910;6.792;2023-06-14T06:38:59;98618.53;;;22.37;61.39
26807;BME280;14380;49.910;6.792;2023-06-14T06:41:26;98622.66;;;22.74;62.30
26807;BME280;14380;49.910;6.792;2023-06-14T06:43:52;98620.44;;;22.45;62.41
26807;BME280;14380;49.910;6.792;2023-06-14T06:46:19;98623.41;;;22.33;62.50
26807;BME280;14380;49.910;6.792;2023-06-14T06:48:46;98628.50;;;22.53;62.46
26807;BME280;14380;49.910;6.792;2023-06-14T06:51:14;98627.19;;;22.65;62.79
26807;BME280;14380;49.910;6.792;2023-06-14T06:53:42;98627.50;;;22.54;59.45
26807;BME280;14380;49.910;6.792;2023-06-14T06:56:10;98633.75;;;22.63;60.44
26807;BME280;14380;49.910;6.792;2023-06-14T06:58:36;98628.50;;;22.53;61.87
26807;BME280;14380;49.910;6.792;2023-06-14T07:01:03;98629.72;;;22.83;59.79
26807;BME280;14380;49.910;6.792;2023-06-14T07:03:30;98634.63;;;23.05;61.73
26807;BME280;14380;49.910;6.792;2023-06-14T07:05:57;98643.38;;;22.82;59.57
26807;BME280;14380;49.910;6.792;2023-06-14T07:08:25;98642.66;;;22.63;60.69
26807;BME280;14380;49.910;6.792;2023-06-14T07:10:52;98635.63;;;23.03;58.24
26807;BME280;14380;49.910;6.792;2023-06-14T07:13:19;98631.44;;;22.93;57.79
26807;BME280;14380;49.910;6.792;2023-06-14T07:15:46;98638.34;;;22.95;57.63
26807;BME280;14380;49.910;6.792;2023-06-14T07:18:13;98637.34;;;22.88;58.11
26807;BME280;14380;49.910;6.792;2023-06-14T07:20:39;98636.84;;;23.09;59.41
26807;BME280;14380;49.910;6.792;2023-06-14T07:23:06;98638.50;;;23.35;59.26
26807;BME280;14380;49.910;6.792;2023-06-14T07:25:34;98644.22;;;22.82;57.85
26807;BME280;14380;49.910;6.792;2023-06-14T07:28:02;98644.88;;;22.68;60.61
26807;BME280;14380;49.910;6.792;2023-06-14T07:30:28;98632.28;;;23.35;56.71
26807;BME280;14380;49.910;6.792;2023-06-14T07:32:55;98639.50;;;23.59;56.40
26807;BME280;14380;49.910;6.792;2023-06-14T07:35:23;98648.06;;;22.96;58.46
26807;BME280;14380;49.910;6.792;2023-06-14T07:37:49;98637.97;;;23.56;57.19
26807;BME280;14380;49.910;6.792;2023-06-14T07:40:16;98637.66;;;23.43;56.59
26807;BME280;14380;49.910;6.792;2023-06-14T07:42:45;98644.03;;;23.58;58.11
26807;BME280;14380;49.910;6.792;2023-06-14T07:45:13;98634.78;;;23.61;58.21
26807;BME280;14380;49.910;6.792;2023-06-14T07:47:40;98643.03;;;23.59;57.94
26807;BME280;14380;49.910;6.792;2023-06-14T07:50:07;98644.91;;;23.42;57.20
26807;BME280;14380;49.910;6.792;2023-06-14T07:52:34;98640.19;;;23.36;58.03
26807;BME280;14380;49.910;6.792;2023-06-14T07:55:01;98641.22;;;23.35;58.43
26807;BME280;14380;49.910;6.792;2023-06-14T07:57:28;98631.84;;;23.79;55.32
26807;BME280;14380;49.910;6.792;2023-06-14T07:59:56;98641.75;;;23.95;56.83
26807;BME280;14380;49.910;6.792;2023-06-14T08:02:23;98634.28;;;23.49;55.79
26807;BME280;14380;49.910;6.792;2023-06-14T08:04:50;98640.56;;;23.89;56.70
26807;BME280;14380;49.910;6.792;2023-06-14T08:07:17;98633.72;;;23.70;58.51
26807;BME280;14380;49.910;6.792;2023-06-14T08:09:44;98635.81;;;24.08;56.75
26807;BME280;14380;49.910;6.792;2023-06-14T08:12:11;98628.75;;;23.90;57.23
26807;BME280;14380;49.910;6.792;2023-06-14T08:14:38;98628.25;;;24.03;56.31
26807;BME280;14380;49.910;6.792;2023-06-14T08:17:07;98629.72;;;24.14;56.30
26807;BME280;14380;49.910;6.792;2023-06-14T08:19:33;98637.16;;;24.12;58.05
26807;BME280;14380;49.910;6.792;2023-06-14T08:22:00;98644.06;;;24.06;56.75
26807;BME280;14380;49.910;6.792;2023-06-14T08:24:29;98639.22;;;23.94;56.95
26807;BME280;14380;49.910;6.792;2023-06-14T08:26:57;98634.34;;;24.29;56.68
26807;BME280;14380;49.910;6.792;2023-06-14T08:29:26;98642.31;;;24.22;57.02
26807;BME280;14380;49.910;6.792;2023-06-14T08:31:54;98637.81;;;24.14;56.57
26807;BME280;14380;49.910;6.792;2023-06-14T08:34:23;98643.25;;;23.89;57.12
26807;BME280;14380;49.910;6.792;2023-06-14T08:36:50;98634.13;;;24.07;56.91
26807;BME280;14380;49.910;6.792;2023-06-14T08:39:17;98628.47;;;24.25;58.20
26807;BME280;14380;49.910;6.792;2023-06-14T08:41:46;98644.31;;;24.28;57.60
26807;BME280;14380;49.910;6.792;2023-06-14T08:44:13;98634.56;;;23.79;57.15
26807;BME280;14380;49.910;6.792;2023-06-14T08:46:41;98625.66;;;24.50;57.19
26807;BME280;14380;49.910;6.792;2023-06-14T08:49:11;98644.19;;;24.22;57.08
26807;BME280;14380;49.910;6.792;2023-06-14T08:51:40;98639.66;;;24.45;56.08
26807;BME280;14380;49.910;6.792;2023-06-14T08:54:09;98648.75;;;24.13;57.17
26807;BME280;14380;49.910;6.792;2023-06-14T08:56:38;98640.41;;;24.31;57.35
26807;BME280;14380;49.910;6.792;2023-06-14T08:59:07;98638.38;;;24.64;57.79
26807;BME280;14380;49.910;6.792;2023-06-14T09:01:36;98635.41;;;24.51;55.49
26807;BME280;14380;49.910;6.792;2023-06-14T09:04:03;98637.38;;;24.89;56.70
26807;BME280;14380;49.910;6.792;2023-06-14T09:06:31;98630.06;;;25.36;56.36
26807;BME280;14380;49.910;6.792;2023-06-14T09:08:59;98636.34;;;24.67;56.26
26807;BME280;14380;49.910;6.792;2023-06-14T09:11:27;98634.13;;;24.70;56.38
26807;BME280;14380;49.910;6.792;2023-06-14T09:13:54;98640.03;;;24.74;54.86
26807;BME280;14380;49.910;6.792;2023-06-14T09:16:21;98640.28;;;25.11;56.37
26807;BME280;14380;49.910;6.792;2023-06-14T09:18:48;98639.56;;;25.32;56.42
26807;BME280;14380;49.910;6.792;2023-06-14T09:21:15;98641.81;;;24.82;55.49
26807;BME280;14380;49.910;6.792;2023-06-14T09:23:43;98643.50;;;25.06;55.90
26807;BME280;14380;49.910;6.792;2023-06-14T09:26:13;98633.50;;;25.30;55.47
26807;BME280;14380;49.910;6.792;2023-06-14T09:28:44;98645.63;;;25.34;55.46
26807;BME280;14380;49.910;6.792;2023-06-14T09:31:11;98649.72;;;25.68;55.77
26807;BME280;14380;49.910;6.792;2023-06-14T09:33:38;98647.75;;;25.47;55.21
26807;BME280;14380;49.910;6.792;2023-06-14T09:36:09;98644.97;;;26.15;55.93
26807;BME280;14380;49.910;6.792;2023-06-14T09:38:39;98646.63;;;25.56;54.88
26807;BME280;14380;49.910;6.792;2023-06-14T09:41:06;98652.50;;;25.60;53.82
26807;BME280;14380;49.910;6.792;2023-06-14T09:43:36;98657.19;;;25.66;55.46
26807;BME280;14380;49.910;6.792;2023-06-14T09:46:03;98647.97;;;26.57;53.44
26807;BME280;14380;49.910;6.792;2023-06-14T09:48:31;98642.50;;;26.72;53.23
26807;BME280;14380;49.910;6.792;2023-06-14T09:51:01;98649.69;;;26.28;54.06
26807;BME280;14380;49.910;6.792;2023-06-14T09:53:30;98648.50;;;26.01;53.20
26807;BME280;14380;49.910;6.792;2023-06-14T09:55:58;98647.63;;;26.30;52.65
26807;BME280;14380;49.910;6.792;2023-06-14T09:58:26;98648.66;;;26.29;52.03
26807;BME280;14380;49.910;6.792;2023-06-14T10:00:57;98643.31;;;26.51;51.26
26807;BME280;14380;49.910;6.792;2023-06-14T10:03:28;98649.47;;;26.45;51.40
26807;BME280;14380;49.910;6.792;2023-06-14T10:05:55;98647.56;;;26.23;52.98
26807;BME280;14380;49.910;6.792;2023-06-14T10:08:27;98642.69;;;26.70;53.31
26807;BME280;14380;49.910;6.792;2023-06-14T10:10:58;98641.97;;;25.95;51.30
26807;BME280;14380;49.910;6.792;2023-06-14T10:13:25;98653.56;;;26.19;52.38
26807;BME280;14380;49.910;6.792;2023-06-14T10:15:59;98634.84;;;26.39;49.44
26807;BME280;14380;49.910;6.792;2023-06-14T10:18:32;98636.56;;;26.25;51.04
26807;BME280;14380;49.910;6.792;2023-06-14T10:21:06;98647.34;;;26.10;50.98
26807;BME280;14380;49.910;6.792;2023-06-14T10:23:37;98647.13;;;25.36;50.08
26807;BME280;14380;49.910;6.792;2023-06-14T10:26:06;98632.97;;;26.39;51.94
26807;BME280;14380;49.910;6.792;2023-06-14T10:28:37;98631.94;;;26.99;52.06
26807;BME280;14380;49.910;6.792;2023-06-14T10:31:08;98632.16;;;26.61;50.45
26807;BME280;14380;49.910;6.792;2023-06-14T10:33:36;98640.66;;;26.57;49.99
26807;BME280;14380;49.910;6.792;2023-06-14T10:36:11;98636.03;;;26.15;49.70
26807;BME280;14380;49.910;6.792;2023-06-14T10:38:57;98643.25;;;26.29;50.80
26807;BME280;14380;49.910;6.792;2023-06-14T10:41:25;98643.66;;;26.26;51.30
26807;BME280;14380;49.910;6.792;2023-06-14T10:43:52;98641.78;;;26.26;48.80
26807;BME280;14380;49.910;6.792;2023-06-14T10:46:28;98642.66;;;26.49;51.45
26807;BME280;14380;49.910;6.792;2023-06-14T10:48:57;98635.38;;;26.49;50.88
26807;BME280;14380;49.910;6.792;2023-06-14T10:51:24;98627.44;;;26.84;49.94
26807;BME280;14380;49.910;6.792;2023-06-14T10:53:51;98635.19;;;26.51;49.46
26807;BME280;14380;49.910;6.792;2023-06-14T10:56:28;98623.38;;;26.07;49.01
26807;BME280;14380;49.910;6.792;2023-06-14T10:58:56;98628.81;;;26.58;51.45
26807;BME280;14380;49.910;6.792;2023-06-14T11:01:32;98631.38;;;27.04;52.10
26807;BME280;14380;49.910;6.792;2023-06-14T11:04:11;98630.88;;;26.78;48.93
26807;BME280;14380;49.910;6.792;2023-06-14T11:06:48;98642.72;;;26.04;49.55
26807;BME280;14380;49.910;6.792;2023-06-14T11:09:44;98632.81;;;26.63;50.60
26807;BME280;14380;49.910;6.792;2023-06-14T11:12:15;98632.22;;;26.82;51.77
26807;BME280;14380;49.910;6.792;2023-06-14T11:14:45;98634.38;;;26.72;49.59
26807;BME280;14380;49.910;6.792;2023-06-14T11:17:14;98634.38;;;26.35;50.07
26807;BME280;14380;49.910;6.792;2023-06-14T11:19:41;98634.34;;;26.13;49.05
26807;BME280;14380;49.910;6.792;2023-06-14T11:22:07;98629.59;;;26.96;49.40
26807;BME280;14380;49.910;6.792;2023-06-14T11:24:34;98632.69;;;26.34;48.08
26807;BME280;14380;49.910;6.792;2023-06-14T11:27:01;98628.75;;;27.17;48.62
26807;BME280;14380;49.910;6.792;2023-06-14T11:29:29;98627.22;;;26.86;48.10
26807;BME280;14380;49.910;6.792;2023-06-14T11:31:56;98629.31;;;26.47;47.20
26807;BME280;14380;49.910;6.792;2023-06-14T11:34:24;98629.38;;;26.17;47.96
26807;BME280;14380;49.910;6.792;2023-06-14T11:36:51;98637.34;;;26.40;48.05
26807;BME280;14380;49.910;6.792;2023-06-14T11:39:24;98629.50;;;26.82;47.47
26807;BME280;14380;49.910;6.792;2023-06-14T11:41:51;98621.94;;;27.50;51.37
26807;BME280;14380;49.910;6.792;2023-06-14T11:44:18;98619.06;;;27.58;49.58
26807;BME280;14380;49.910;6.792;2023-06-14T11:46:45;98627.72;;;27.46;50.36
26807;BME280;14380;49.910;6.792;2023-06-14T11:49:11;98625.22;;;27.45;51.15
26807;BME280;14380;49.910;6.792;2023-06-14T11:51:39;98623.19;;;27.25;48.68
26807;BME280;14380;49.910;6.792;2023-06-14T11:54:09;98632.22;;;27.33;49.02
26807;BME280;14380;49.910;6.792;2023-06-14T11:56:36;98618.06;;;27.66;47.90
26807;BME280;14380;49.910;6.792;2023-06-14T11:59:03;98628.84;;;27.52;47.65
26807;BME280;14380;49.910;6.792;2023-06-14T12:01:31;98617.41;;;27.57;47.96
26807;BME280;14380;49.910;6.792;2023-06-14T12:03:59;98621.63;;;26.88;47.56
26807;BME280;14380;49.910;6.792;2023-06-14T12:06:26;98617.22;;;26.65;47.57
26807;BME280;14380;49.910;6.792;2023-06-14T12:08:56;98618.28;;;26.27;49.18
26807;BME280;14380;49.910;6.792;2023-06-14T12:11:23;98622.78;;;26.41;48.50
26807;BME280;14380;49.910;6.792;2023-06-14T12:13:50;98627.97;;;26.80;48.81
26807;BME280;14380;49.910;6.792;2023-06-14T12:16:17;98630.06;;;27.50;48.74
26807;BME280;14380;49.910;6.792;2023-06-14T12:18:44;98628.22;;;27.28;50.04
26807;BME280;14380;49.910;6.792;2023-06-14T12:21:10;98627.81;;;26.81;47.65
26807;BME280;14380;49.910;6.792;2023-06-14T12:23:44;98625.75;;;26.47;47.94
26807;BME280;14380;49.910;6.792;2023-06-14T12:26:14;98617.50;;;27.20;50.19
26807;BME280;14380;49.910;6.792;2023-06-14T12:28:41;98617.22;;;28.00;49.90
26807;BME280;14380;49.910;6.792;2023-06-14T12:31:09;98620.09;;;27.28;46.88
26807;BME280;14380;49.910;6.792;2023-06-14T12:33:36;98623.28;;;26.67;46.77
26807;BME280;14380;49.910;6.792;2023-06-14T12:36:04;98615.00;;;27.47;47.94
26807;BME280;14380;49.910;6.792;2023-06-14T12:38:31;98616.81;;;27.11;46.04
26807;BME280;14380;49.910;6.792;2023-06-14T12:40:57;98621.97;;;26.63;46.56
26807;BME280;14380;49.910;6.792;2023-06-14T12:43:26;98621.34;;;27.04;46.97
26807;BME280;14380;49.910;6.792;2023-06-14T12:45:53;98621.91;;;26.93;46.84
26807;BME280;14380;49.910;6.792;2023-06-14T12:48:20;98624.13;;;27.11;47.64
26807;BME280;14380;49.910;6.792;2023-06-14T12:50:47;98627.09;;;26.94;46.21
26807;BME280;14380;49.910;6.792;2023-06-14T12:53:15;98623.88;;;26.84;46.22
26807;BME280;14380;49.910;6.792;2023-06-14T12:55:42;98630.47;;;26.96;46.56
26807;BME280;14380;49.910;6.792;2023-06-14T12:58:09;98630.75;;;26.65;46.54
26807;BME280;14380;49.910;6.792;2023-06-14T13:00:39;98629.31;;;27.34;47.11
26807;BME280;14380;49.910;6.792;2023-06-14T13:03:05;98622.00;;;27.35;45.80